createdAt,value
2023-05-01T01:05:13.013Z,99327.14
2023-05-01T01:10:36.431Z,99322.58
2023-05-01T02:26:05.272Z,99292.45
2023-05-01T02:43:17.524Z,99292.46
2023-05-01T04:50:06.511Z,99246.41
2023-05-01T04:55:10.161Z,99240.77
2023-05-01T05:00:19.388Z,99236.30
2023-05-01T05:05:32.651Z,99231.26
2023-05-01T05:10:43.443Z,99233.30
2023-05-01T05:15:58.936Z,99228.89
2023-05-01T05:21:09.147Z,99228.26
2023-05-01T05:26:13.695Z,99229.65
2023-05-01T05:31:24.691Z,99233.00
2023-05-01T05:36:28.949Z,99233.42
2023-05-01T05:41:32.600Z,99235.79
2023-05-01T05:46:37.492Z,99234.48
2023-05-01T05:51:41.673Z,99232.27
2023-05-01T05:56:45.672Z,99237.10
2023-05-01T06:01:49.305Z,99234.59
2023-05-01T06:06:52.828Z,99233.89
2023-05-01T06:12:05.901Z,99230.55
2023-05-01T06:17:09.154Z,99231.91
2023-05-01T06:22:12.343Z,99230.19
2023-05-01T06:27:22.636Z,99227.71
2023-05-01T06:32:26.051Z,99226.77
2023-05-01T06:37:30.366Z,99224.20
2023-05-01T06:42:33.581Z,99224.63
2023-05-01T06:47:42.559Z,99230.73
2023-05-01T06:52:46.334Z,99228.51
2023-05-01T06:57:49.649Z,99229.71
2023-05-01T07:02:53.925Z,99227.47
2023-05-01T07:08:01.341Z,99216.52
2023-05-01T07:13:05.224Z,99225.05
2023-05-01T07:18:08.741Z,99222.54
2023-05-01T07:23:12.122Z,99220.70
2023-05-01T07:28:18.264Z,99229.30
2023-05-01T07:33:21.674Z,99229.39
2023-05-01T07:38:25.085Z,99225.94
2023-05-01T07:43:28.283Z,99220.49
2023-05-01T07:48:32.112Z,99224.04
2023-05-01T07:53:35.852Z,99226.65
2023-05-01T07:58:42.010Z,99222.14
2023-05-01T08:03:48.022Z,99219.92
2023-05-01T08:08:53.761Z,99221.96
2023-05-01T08:13:57.007Z,99219.41
2023-05-01T08:19:00.271Z,99223.35
2023-05-01T08:24:03.916Z,99229.58
2023-05-01T08:29:07.290Z,99226.40
2023-05-01T08:34:10.664Z,99223.42
2023-05-01T08:39:14.586Z,99222.98
2023-05-01T08:44:20.689Z,99214.95
2023-05-01T08:49:24.849Z,99210.71
2023-05-01T08:54:28.246Z,99208.03
2023-05-01T08:59:34.564Z,99207.71
2023-05-01T09:04:38.512Z,99201.09
2023-05-01T09:09:41.656Z,99195.98
2023-05-01T09:14:45.737Z,99196.52
2023-05-01T09:19:49.996Z,99196.43
2023-05-01T09:24:53.761Z,99189.95
2023-05-01T09:29:57.379Z,99187.67
2023-05-01T09:35:13.717Z,99175.50
2023-05-01T09:40:17.053Z,99169.61
2023-05-01T09:45:20.617Z,99168.13
2023-05-01T09:50:32.474Z,99163.00
2023-05-01T09:55:35.786Z,99163.04
2023-05-01T10:00:51.936Z,99153.41
2023-05-01T10:05:57.971Z,99150.70
2023-05-01T10:11:06.072Z,99147.20
2023-05-01T10:16:29.975Z,99138.95
2023-05-01T10:21:34.210Z,99134.22
2023-05-01T10:26:39.108Z,99132.52
2023-05-01T10:31:42.805Z,99123.70
2023-05-01T10:36:56.149Z,99121.74
2023-05-01T10:41:59.326Z,99115.24
2023-05-01T10:47:35.001Z,99108.05
2023-05-01T10:53:14.686Z,99109.11
2023-05-01T10:58:53.243Z,99110.89
